East Northport, New York
Current Conditions -  °F | °C
As of 7:53 PM on Friday 24 Oct 2014 (Local Time) from KFRG Reporting Station
Overcast Overcast  
Wind Chill: 56°   Ceiling: 5000
Heat Index: 56°   Visibility: 10mi
Dew Point: 45°   Wind: 0mph
Humidity: 67%   Direction: NA
Pressure: 29.81"   Gusts: NA
Location:  40.88°N, 73.31°W
Report Text: KFRG 242353Z 00000KT 10SM OVC050 13/07 A2981 RMK AO2 SLP095 T01330072 10150 20133 53011
Loading
Personal Weather Stations






























Interactive Weather Map
Tropical Storm Tracking
New forecast layout! Learn more

10-Day Weather Forecast

Advertisements
Track Severe Weather on mobile